Marysville, Ohio
Current Conditions -  °F | °C
As of 5:34 AM on Saturday 22 Nov 2014 (Local Time) from KMRT Reporting Station
Overcast Overcast  
Wind Chill: 18°   Ceiling: 2300
Heat Index: 28°   Visibility: 10mi
Dew Point: 16°   Wind: 10mph
Humidity: 62%   Direction: 210°SSW
Pressure: 30.28"   Gusts: NA
Location:  40.24°N, 83.37°W
Report Text: KMRT 221034Z AUTO 21009KT 10SM OVC023 M02/M09 A3028 RMK AO2 T10251088
Loading
Personal Weather Stations






























Interactive Weather Map New forecast layout! Learn more

10-Day Weather Forecast

Advertisements
Track Severe Weather on mobile